Time;durP1;ratioP1;P1;durP2;ratioP2;P2;SDS_P1;SDS_P2;PMS_P1;PMS_P2;Temp;Humidity;BMP_temperature;BMP_pressure;BME280_temperature;BME280_humidity;BME280_pressure;Samples;Min_cycle;Max_cycle;Signal;HPM_P1;HPM_P2
2022/11/11 00:00:30;;;;;;;;;;;4.80;99.90;;;;;;5044026;28;19988;-68
2022/11/11 00:02:57;;;;;;;;;;;4.70;99.90;;;;;;5044055;28;19996;-68
2022/11/11 00:05:24;;;;;;;;;;;4.70;99.90;;;;;;5043833;28;19956;-68
2022/11/11 00:07:52;;;;;;;;;;;4.60;99.90;;;;;;5043775;28;19921;-69
2022/11/11 00:10:19;;;;;;;;;;;4.60;99.90;;;;;;5043854;28;19984;-68
2022/11/11 00:12:46;;;;;;;;;;;4.60;99.90;;;;;;5043930;28;20158;-68
2022/11/11 00:15:13;;;;;;;;;;;4.60;99.90;;;;;;5043527;28;19988;-68
2022/11/11 00:26:00;;;;;;;;;;;4.50;99.90;;;;;;5043369;28;19924;-69
2022/11/11 00:28:26;;;;;;;;;;;4.50;99.90;;;;;;5043699;28;19992;-68
2022/11/11 00:31:01;;;;;;;;;;;4.50;99.90;;;;;;5043746;28;20171;-68
2022/11/11 00:33:28;;;;;;;;;;;4.40;99.90;;;;;;5043571;28;19988;-68
2022/11/11 00:35:54;;;;;;;;;;;4.40;99.90;;;;;;5042979;28;19952;-69
2022/11/11 00:41:04;;;;;;;;;;;4.40;99.90;;;;;;5043369;28;19924;-68
2022/11/11 00:43:31;;;;;;;;;;;4.30;99.90;;;;;;5043137;28;19988;-68
2022/11/11 00:50:57;;;;;;;;;;;4.30;99.90;;;;;;5042794;28;19952;-69
2022/11/11 00:51:30;;;;;;;;;;;4.30;99.90;;;;;;5043039;28;20156;-68
2022/11/11 00:53:56;;;;;;;;;;;4.30;99.90;;;;;;5043066;28;19984;-68
2022/11/11 00:56:23;;;;;;;;;;;4.30;99.90;;;;;;5042785;28;19957;-68
2022/11/11 00:58:50;;;;;;;;;;;4.30;99.90;;;;;;5043252;28;19984;-68
2022/11/11 01:01:17;;;;;;;;;;;4.20;99.90;;;;;;5043416;28;19984;-68
2022/11/11 01:03:44;;;;;;;;;;;4.20;99.90;;;;;;5043169;28;19976;-68
2022/11/11 01:06:13;;;;;;;;;;;4.10;99.90;;;;;;5042626;28;20227;-69
2022/11/11 01:08:41;;;;;;;;;;;4.10;99.90;;;;;;5043182;28;19956;-68
2022/11/11 01:11:14;;;;;;;;;;;4.10;99.90;;;;;;5043015;28;19988;-69
2022/11/11 01:13:41;;;;;;;;;;;4.10;99.90;;;;;;5042717;28;20151;-68
2022/11/11 01:16:09;;;;;;;;;;;4.10;99.90;;;;;;5042905;28;20061;-68
2022/11/11 01:18:35;;;;;;;;;;;4.00;99.90;;;;;;5042683;28;20370;-68
2022/11/11 01:21:04;;;;;;;;;;;4.00;99.90;;;;;;5043013;28;19988;-69
2022/11/11 01:23:33;;;;;;;;;;;4.00;99.90;;;;;;5042893;28;19989;-68
2022/11/11 01:26:03;;;;;;;;;;;4.10;99.90;;;;;;5042775;28;20137;-68
2022/11/11 01:28:29;;;;;;;;;;;4.10;99.90;;;;;;5042953;28;20094;-68
2022/11/11 01:31:00;;;;;;;;;;;4.10;99.90;;;;;;5042704;28;19989;-69
2022/11/11 01:33:26;;;;;;;;;;;4.00;99.90;;;;;;5042534;28;19989;-68
2022/11/11 01:35:53;;;;;;;;;;;4.00;99.90;;;;;;5042776;28;19988;-69
2022/11/11 01:38:19;;;;;;;;;;;4.00;99.90;;;;;;5042664;28;20164;-68
2022/11/11 01:40:48;;;;;;;;;;;4.10;99.90;;;;;;5042875;28;19984;-68
2022/11/11 01:43:17;;;;;;;;;;;4.00;99.90;;;;;;5042525;28;19997;-69
2022/11/11 01:45:47;;;;;;;;;;;4.10;99.90;;;;;;5042525;28;19953;-70
2022/11/11 01:51:02;;;;;;;;;;;4.00;99.90;;;;;;5042748;28;19955;-69
2022/11/11 01:53:29;;;;;;;;;;;4.00;99.90;;;;;;5042771;28;19988;-68
2022/11/11 01:55:58;;;;;;;;;;;4.00;99.90;;;;;;5042268;28;19959;-68
2022/11/11 01:58:24;;;;;;;;;;;3.90;99.90;;;;;;5042723;28;19988;-68
2022/11/11 02:00:51;;;;;;;;;;;4.00;99.90;;;;;;5045079;28;19988;-68
2022/11/11 02:03:20;;;;;;;;;;;3.90;99.90;;;;;;5045393;28;19984;-68
2022/11/11 02:05:45;;;;;;;;;;;3.90;99.90;;;;;;5045493;28;19988;-68
2022/11/11 02:08:13;;;;;;;;;;;3.90;99.90;;;;;;5044704;28;19917;-68
2022/11/11 02:10:42;;;;;;;;;;;3.90;99.90;;;;;;5045958;28;20073;-68
2022/11/11 02:15:57;;;;;;;;;;;3.80;99.90;;;;;;5045594;28;19980;-68
2022/11/11 02:18:24;;;;;;;;;;;3.80;99.90;;;;;;5045831;28;20185;-68
2022/11/11 02:20:50;;;;;;;;;;;3.80;99.90;;;;;;5045654;28;19956;-68
2022/11/11 02:23:19;;;;;;;;;;;3.70;99.90;;;;;;5045832;28;19984;-68
2022/11/11 02:25:48;;;;;;;;;;;3.80;99.90;;;;;;5045185;28;19996;-68
2022/11/11 02:28:16;;;;;;;;;;;3.70;99.90;;;;;;5045452;28;19952;-68
2022/11/11 02:30:43;;;;;;;;;;;3.60;99.90;;;;;;5045547;28;20245;-68
2022/11/11 02:33:09;;;;;;;;;;;3.60;99.90;;;;;;5045417;28;19952;-68
2022/11/11 02:35:37;;;;;;;;;;;3.60;99.90;;;;;;5045379;28;19988;-69
2022/11/11 02:38:07;;;;;;;;;;;3.60;99.90;;;;;;5045372;28;19964;-69
2022/11/11 02:40:36;;;;;;;;;;;3.60;99.90;;;;;;5045520;28;19927;-68
2022/11/11 02:43:03;;;;;;;;;;;3.70;99.90;;;;;;5045443;28;19948;-69
2022/11/11 02:45:30;;;;;;;;;;;3.60;99.90;;;;;;5045221;28;19925;-68
2022/11/11 02:47:57;;;;;;;;;;;3.60;99.90;;;;;;5045312;28;19952;-68
2022/11/11 02:50:23;;;;;;;;;;;3.60;99.90;;;;;;5045225;28;19988;-69
2022/11/11 02:52:50;;;;;;;;;;;3.50;99.90;;;;;;5044976;28;19992;-69
2022/11/11 02:55:16;;;;;;;;;;;3.60;99.90;;;;;;5045090;28;19952;-68
2022/11/11 02:57:43;;;;;;;;;;;3.50;99.90;;;;;;5045263;28;19988;-68
2022/11/11 03:00:12;;;;;;;;;;;3.50;99.90;;;;;;5045246;28;20150;-68
2022/11/11 03:02:39;;;;;;;;;;;3.50;99.90;;;;;;5045262;28;19984;-68
2022/11/11 03:05:05;;;;;;;;;;;3.60;99.90;;;;;;5044386;28;19988;-68
2022/11/11 03:07:32;;;;;;;;;;;3.50;99.90;;;;;;5045070;28;19992;-69
2022/11/11 03:09:59;;;;;;;;;;;3.50;99.90;;;;;;5044890;28;19993;-68
2022/11/11 03:12:26;;;;;;;;;;;3.50;99.90;;;;;;5044035;28;19992;-70
2022/11/11 03:14:54;;;;;;;;;;;3.50;99.90;;;;;;5044722;28;19959;-68
2022/11/11 03:17:38;;;;;;;;;;;3.50;99.90;;;;;;5044895;28;19944;-69
2022/11/11 03:22:58;;;;;;;;;;;3.40;99.90;;;;;;5011817;28;20216;-68
2022/11/11 03:28:12;;;;;;;;;;;3.50;99.90;;;;;;5040889;28;19980;-69
2022/11/11 03:30:40;;;;;;;;;;;3.40;99.90;;;;;;5044707;28;20159;-68
2022/11/11 03:33:08;;;;;;;;;;;3.40;99.90;;;;;;5044615;28;19963;-69
2022/11/11 03:35:35;;;;;;;;;;;3.40;99.90;;;;;;5044313;28;19984;-68
2022/11/11 03:38:22;;;;;;;;;;;3.40;99.90;;;;;;5044527;28;19980;-69
2022/11/11 03:40:50;;;;;;;;;;;3.40;99.90;;;;;;5044563;28;19921;-68
2022/11/11 03:43:18;;;;;;;;;;;3.40;99.90;;;;;;5044435;28;19929;-68
2022/11/11 03:45:45;;;;;;;;;;;3.40;99.90;;;;;;5043758;28;19988;-68
2022/11/11 03:48:13;;;;;;;;;;;3.30;99.90;;;;;;5044311;28;19984;-69
2022/11/11 03:50:40;;;;;;;;;;;3.30;99.90;;;;;;5044371;28;19960;-68
2022/11/11 03:53:07;;;;;;;;;;;3.30;99.90;;;;;;5044269;28;19984;-69
2022/11/11 03:55:34;;;;;;;;;;;3.30;99.90;;;;;;5043969;28;19943;-68
2022/11/11 03:58:00;;;;;;;;;;;3.30;99.90;;;;;;5044093;28;19992;-68
2022/11/11 04:00:28;;;;;;;;;;;3.20;99.90;;;;;;5044240;28;19996;-69
2022/11/11 04:11:12;;;;;;;;;;;3.10;99.90;;;;;;5043829;28;19939;-68
2022/11/11 04:16:26;;;;;;;;;;;3.10;99.90;;;;;;5043477;28;19924;-68
2022/11/11 04:21:44;;;;;;;;;;;3.00;99.90;;;;;;5043614;28;19959;-69
2022/11/11 04:27:05;;;;;;;;;;;3.10;99.90;;;;;;5008099;28;19917;-69
2022/11/11 04:29:31;;;;;;;;;;;3.10;99.90;;;;;;5043662;28;19984;-69
2022/11/11 04:34:44;;;;;;;;;;;3.10;99.90;;;;;;5043237;28;20227;-68
2022/11/11 04:37:12;;;;;;;;;;;3.00;99.90;;;;;;5043579;28;19948;-68
2022/11/11 04:42:23;;;;;;;;;;;3.00;99.90;;;;;;5023595;28;19972;-69
2022/11/11 04:47:34;;;;;;;;;;;2.90;99.90;;;;;;5023550;28;19940;-68
2022/11/11 04:50:00;;;;;;;;;;;3.00;99.90;;;;;;5023537;28;20256;-70
2022/11/11 04:52:28;;;;;;;;;;;3.00;99.90;;;;;;5023755;28;20010;-69
2022/11/11 04:57:41;;;;;;;;;;;3.00;99.90;;;;;;5023516;28;19960;-68
2022/11/11 05:00:08;;;;;;;;;;;2.90;99.90;;;;;;5023566;28;19964;-68
2022/11/11 05:05:19;;;;;;;;;;;2.90;99.90;;;;;;5023148;28;19985;-68
2022/11/11 05:10:31;;;;;;;;;;;2.90;99.90;;;;;;5023408;28;19964;-69
2022/11/11 05:21:22;;;;;;;;;;;2.90;99.90;;;;;;5035573;28;19959;-69
2022/11/11 05:26:34;;;;;;;;;;;2.90;99.90;;;;;;5042881;28;20361;-69
2022/11/11 05:29:01;;;;;;;;;;;2.90;99.90;;;;;;5042802;28;19953;-67
2022/11/11 05:31:28;;;;;;;;;;;2.90;99.90;;;;;;5043155;28;20000;-69
2022/11/11 05:33:55;;;;;;;;;;;2.80;99.90;;;;;;5044134;28;19949;-68
2022/11/11 05:36:21;;;;;;;;;;;2.80;99.90;;;;;;5046631;28;19984;-68
2022/11/11 05:38:49;;;;;;;;;;;2.80;99.90;;;;;;5046755;28;19992;-68
2022/11/11 05:41:16;;;;;;;;;;;2.80;99.90;;;;;;5046866;28;19996;-68
2022/11/11 05:43:42;;;;;;;;;;;2.80;99.90;;;;;;5046738;28;19988;-68
2022/11/11 05:46:09;;;;;;;;;;;2.80;99.90;;;;;;5046116;28;19993;-68
2022/11/11 05:49:13;;;;;;;;;;;2.80;99.90;;;;;;5046586;28;19991;-69
2022/11/11 05:51:27;;;;;;;;;;;2.80;99.90;;;;;;5040664;28;20266;-68
2022/11/11 05:53:56;;;;;;;;;;;2.80;99.90;;;;;;5046470;28;19921;-68
2022/11/11 05:56:23;;;;;;;;;;;2.70;99.90;;;;;;5046212;28;19988;-68
2022/11/11 05:58:50;;;;;;;;;;;2.70;99.90;;;;;;5045924;28;20171;-68
2022/11/11 06:01:16;;;;;;;;;;;2.70;99.90;;;;;;5046057;28;19956;-68
2022/11/11 06:03:43;;;;;;;;;;;2.70;99.90;;;;;;5046108;28;19987;-68
2022/11/11 06:06:09;;;;;;;;;;;2.70;99.90;;;;;;5045724;28;20264;-68
2022/11/11 06:08:36;;;;;;;;;;;2.70;99.90;;;;;;5046126;28;19992;-68
2022/11/11 06:11:04;;;;;;;;;;;2.60;99.90;;;;;;5045580;28;20004;-67
2022/11/11 06:13:32;;;;;;;;;;;2.60;99.90;;;;;;5045252;28;19949;-68
2022/11/11 06:15:59;;;;;;;;;;;2.60;99.90;;;;;;5045764;28;19984;-68
2022/11/11 06:18:25;;;;;;;;;;;2.60;99.90;;;;;;5046034;28;19960;-69
2022/11/11 06:20:54;;;;;;;;;;;2.60;99.90;;;;;;5045631;28;19988;-65
2022/11/11 06:23:21;;;;;;;;;;;2.60;99.90;;;;;;5045197;28;19988;-68
2022/11/11 06:28:34;;;;;;;;;;;2.60;99.90;;;;;;5045633;28;19963;-67
2022/11/11 06:31:00;;;;;;;;;;;2.60;99.90;;;;;;5045891;28;19963;-70
2022/11/11 06:33:27;;;;;;;;;;;2.60;99.90;;;;;;5045288;28;19960;-69
2022/11/11 06:35:54;;;;;;;;;;;2.60;99.90;;;;;;5045363;28;20170;-69
2022/11/11 06:38:21;;;;;;;;;;;2.60;99.90;;;;;;5045791;28;19953;-69
2022/11/11 06:40:51;;;;;;;;;;;2.60;99.90;;;;;;5045844;28;19928;-68
2022/11/11 06:43:18;;;;;;;;;;;2.60;99.90;;;;;;5045259;28;19921;-69
2022/11/11 06:45:49;;;;;;;;;;;2.60;99.90;;;;;;5044780;28;20183;-69
2022/11/11 06:48:16;;;;;;;;;;;2.60;99.90;;;;;;5045720;28;19980;-70
2022/11/11 06:50:43;;;;;;;;;;;2.70;99.90;;;;;;5044905;28;19989;-68
2022/11/11 06:53:10;;;;;;;;;;;2.70;99.90;;;;;;5044778;28;20280;-70
2022/11/11 06:55:37;;;;;;;;;;;2.70;99.90;;;;;;5045196;28;19967;-69
2022/11/11 06:58:04;;;;;;;;;;;2.70;99.90;;;;;;5045278;28;19957;-69
2022/11/11 07:00:31;;;;;;;;;;;2.70;99.90;;;;;;5045465;28;19988;-69
2022/11/11 07:02:59;;;;;;;;;;;2.80;99.90;;;;;;5045153;28;19959;-69
2022/11/11 07:05:25;;;;;;;;;;;2.80;99.90;;;;;;5045034;28;19984;-69
2022/11/11 07:07:52;;;;;;;;;;;2.70;99.90;;;;;;5045039;28;20264;-69
2022/11/11 07:10:19;;;;;;;;;;;2.80;99.90;;;;;;5044890;28;20263;-68
2022/11/11 07:15:15;;;;;;;;;;;2.80;99.90;;;;;;5051712;28;19984;-68
2022/11/11 07:17:42;;;;;;;;;;;2.90;99.90;;;;;;5062402;28;19948;-69
2022/11/11 07:20:10;;;;;;;;;;;2.90;99.90;;;;;;5065013;28;20208;-69
2022/11/11 07:22:37;;;;;;;;;;;2.90;99.90;;;;;;5065279;28;19988;-68
2022/11/11 07:25:04;;;;;;;;;;;2.90;99.90;;;;;;5064842;28;19956;-70
2022/11/11 07:27:31;;;;;;;;;;;2.90;99.90;;;;;;5064811;28;19921;-69
2022/11/11 07:29:58;;;;;;;;;;;3.00;99.90;;;;;;5055424;28;19991;-68
2022/11/11 07:32:24;;;;;;;;;;;3.00;99.90;;;;;;5059472;28;19980;-70
2022/11/11 07:34:51;;;;;;;;;;;3.00;99.90;;;;;;5064395;28;19921;-69
2022/11/11 07:37:19;;;;;;;;;;;3.10;99.90;;;;;;5065032;28;19963;-69
2022/11/11 07:39:45;;;;;;;;;;;3.10;99.90;;;;;;5065002;28;19984;-69
2022/11/11 07:42:12;;;;;;;;;;;3.10;99.90;;;;;;5064590;28;20174;-68
2022/11/11 07:44:39;;;;;;;;;;;3.10;99.90;;;;;;5057564;28;19987;-69
2022/11/11 07:47:05;;;;;;;;;;;3.20;99.90;;;;;;5056878;28;19948;-68
2022/11/11 07:49:32;;;;;;;;;;;3.20;99.90;;;;;;5064799;28;20011;-68
2022/11/11 07:51:58;;;;;;;;;;;3.20;99.90;;;;;;5064552;28;20279;-68
2022/11/11 07:54:26;;;;;;;;;;;3.20;99.90;;;;;;5069396;28;19948;-72
2022/11/11 07:56:53;;;;;;;;;;;3.30;99.90;;;;;;5067624;28;19984;-69
2022/11/11 07:59:20;;;;;;;;;;;3.30;99.90;;;;;;5051662;28;19956;-69
2022/11/11 08:01:46;;;;;;;;;;;3.40;99.90;;;;;;5052889;28;19988;-69
2022/11/11 08:04:13;;;;;;;;;;;3.40;99.90;;;;;;5044574;28;19959;-69
2022/11/11 08:06:39;;;;;;;;;;;3.50;99.90;;;;;;5043927;28;20255;-69
2022/11/11 08:09:06;;;;;;;;;;;3.50;99.90;;;;;;5044420;28;19959;-69
2022/11/11 08:14:24;;;;;;;;;;;3.60;99.90;;;;;;5048921;28;20151;-69
2022/11/11 08:16:52;;;;;;;;;;;3.60;99.90;;;;;;5055412;28;19920;-70
2022/11/11 08:19:19;;;;;;;;;;;3.70;99.90;;;;;;5064224;28;19984;-70
2022/11/11 08:21:45;;;;;;;;;;;3.80;99.90;;;;;;5064189;28;19984;-70
2022/11/11 08:24:12;;;;;;;;;;;3.90;99.90;;;;;;5064151;28;20184;-69
2022/11/11 08:26:40;;;;;;;;;;;4.00;99.90;;;;;;5063567;28;19988;-70
2022/11/11 08:29:06;;;;;;;;;;;4.00;99.90;;;;;;5057302;28;19979;-70
2022/11/11 08:31:39;;;;;;;;;;;4.10;99.90;;;;;;5054685;28;19988;-69
2022/11/11 08:34:06;;;;;;;;;;;4.10;99.90;;;;;;5063742;28;19956;-69
2022/11/11 08:36:32;;;;;;;;;;;4.20;99.90;;;;;;5063782;28;19959;-69
2022/11/11 08:38:59;;;;;;;;;;;4.30;99.90;;;;;;5063973;28;20135;-69
2022/11/11 08:41:44;;;;;;;;;;;4.40;99.90;;;;;;5062841;28;19987;-69
2022/11/11 08:44:10;;;;;;;;;;;4.60;99.90;;;;;;5057135;28;19960;-69
2022/11/11 08:46:37;;;;;;;;;;;4.70;99.90;;;;;;5055349;28;19925;-69
2022/11/11 08:49:04;;;;;;;;;;;4.70;99.90;;;;;;5063877;28;19983;-70
2022/11/11 08:51:30;;;;;;;;;;;4.90;99.90;;;;;;5063528;28;19987;-71
2022/11/11 08:53:57;;;;;;;;;;;5.00;99.90;;;;;;5063758;28;19983;-69
2022/11/11 08:56:23;;;;;;;;;;;5.20;99.90;;;;;;5063256;28;19988;-70
2022/11/11 08:58:51;;;;;;;;;;;5.30;99.90;;;;;;5056649;28;19929;-70
2022/11/11 09:01:18;;;;;;;;;;;5.30;99.90;;;;;;5055054;28;19967;-70
2022/11/11 09:03:45;;;;;;;;;;;5.40;99.90;;;;;;5063608;28;20123;-70
2022/11/11 09:06:12;;;;;;;;;;;5.50;99.90;;;;;;5063369;28;19984;-70
2022/11/11 09:08:41;;;;;;;;;;;5.70;99.90;;;;;;5064324;28;19956;-70
2022/11/11 09:11:07;;;;;;;;;;;5.80;99.90;;;;;;5067693;28;20167;-70
2022/11/11 09:13:48;;;;;;;;;;;6.00;99.90;;;;;;5060597;28;19984;-70
2022/11/11 09:16:16;;;;;;;;;;;6.10;99.90;;;;;;5055175;28;20251;-70
2022/11/11 09:18:43;;;;;;;;;;;6.20;99.90;;;;;;5047241;28;19984;-69
2022/11/11 09:21:09;;;;;;;;;;;6.30;99.90;;;;;;5047711;28;19988;-70
2022/11/11 09:23:36;;;;;;;;;;;6.40;99.90;;;;;;5047444;28;19980;-70
2022/11/11 09:26:03;;;;;;;;;;;6.50;99.90;;;;;;5047045;28;19984;-69
2022/11/11 09:28:32;;;;;;;;;;;6.60;99.90;;;;;;5047073;28;19921;-71
2022/11/11 09:30:59;;;;;;;;;;;6.70;99.90;;;;;;5058470;28;19929;-70
2022/11/11 09:33:27;;;;;;;;;;;6.90;99.90;;;;;;5066942;28;19921;-70
2022/11/11 09:35:54;;;;;;;;;;;7.00;99.90;;;;;;5066740;28;20255;-69
2022/11/11 09:38:21;;;;;;;;;;;7.10;99.90;;;;;;5067152;28;19988;-69
2022/11/11 09:40:57;;;;;;;;;;;7.30;99.90;;;;;;5067225;28;19983;-69
2022/11/11 09:43:26;;;;;;;;;;;7.40;99.90;;;;;;5061968;28;19925;-70
2022/11/11 09:46:01;;;;;;;;;;;7.70;99.90;;;;;;5057261;28;20145;-71
2022/11/11 09:48:37;;;;;;;;;;;7.90;99.90;;;;;;5067215;28;19983;-70
2022/11/11 09:51:05;;;;;;;;;;;8.00;99.90;;;;;;5067100;28;20002;-70
2022/11/11 09:53:33;;;;;;;;;;;8.20;99.90;;;;;;5066907;28;19975;-70
2022/11/11 09:56:01;;;;;;;;;;;8.40;99.90;;;;;;5066682;28;19987;-70
2022/11/11 09:58:31;;;;;;;;;;;8.60;99.90;;;;;;5061483;28;19988;-69
2022/11/11 10:00:59;;;;;;;;;;;8.90;99.90;;;;;;5057848;28;19928;-70
2022/11/11 10:03:29;;;;;;;;;;;9.10;99.90;;;;;;5066450;28;19983;-70
2022/11/11 10:06:00;;;;;;;;;;;9.30;99.90;;;;;;5066399;28;20250;-70
2022/11/11 10:08:29;;;;;;;;;;;9.50;99.90;;;;;;5066819;28;20140;-70
2022/11/11 10:10:58;;;;;;;;;;;9.70;99.90;;;;;;5066618;28;19956;-71
2022/11/11 10:13:28;;;;;;;;;;;9.90;99.90;;;;;;5061240;28;20170;-70
2022/11/11 10:15:57;;;;;;;;;;;10.20;99.90;;;;;;5056546;28;19957;-70
2022/11/11 10:18:32;;;;;;;;;;;10.40;99.90;;;;;;5066507;28;19988;-70
2022/11/11 10:21:01;;;;;;;;;;;10.60;99.90;;;;;;5065455;28;19952;-70
2022/11/11 10:23:30;;;;;;;;;;;10.70;99.90;;;;;;5066333;28;19920;-70
2022/11/11 10:25:59;;;;;;;;;;;10.90;99.90;;;;;;5066178;28;19925;-70
2022/11/11 10:28:28;;;;;;;;;;;11.20;99.90;;;;;;5061103;28;19963;-70
2022/11/11 10:30:55;;;;;;;;;;;11.30;99.90;;;;;;5056788;28;19921;-70
2022/11/11 10:33:24;;;;;;;;;;;11.50;99.90;;;;;;5065825;28;19983;-71
2022/11/11 10:35:51;;;;;;;;;;;11.70;99.90;;;;;;5065609;28;19995;-70
2022/11/11 10:38:26;;;;;;;;;;;11.90;99.90;;;;;;5065863;28;19952;-71
2022/11/11 10:40:53;;;;;;;;;;;12.00;99.90;;;;;;5065854;28;19928;-70
2022/11/11 10:43:22;;;;;;;;;;;12.20;99.90;;;;;;5061645;28;20003;-70
2022/11/11 10:45:52;;;;;;;;;;;12.30;99.90;;;;;;5055432;28;19928;-70
2022/11/11 10:48:21;;;;;;;;;;;12.30;99.90;;;;;;5065456;28;19987;-70
2022/11/11 10:50:50;;;;;;;;;;;12.50;99.90;;;;;;5065347;28;19927;-71
2022/11/11 10:53:20;;;;;;;;;;;12.60;99.90;;;;;;5065445;28;19988;-70
2022/11/11 10:55:50;;;;;;;;;;;12.80;99.90;;;;;;5065553;28;19999;-70
2022/11/11 10:58:21;;;;;;;;;;;13.00;99.90;;;;;;5061966;28;19943;-70
2022/11/11 11:00:50;;;;;;;;;;;13.10;99.90;;;;;;5055550;28;19960;-70
2022/11/11 11:03:22;;;;;;;;;;;13.20;99.90;;;;;;5049489;28;19985;-71
2022/11/11 11:05:52;;;;;;;;;;;13.30;99.90;;;;;;5045311;28;19988;-71
2022/11/11 11:08:21;;;;;;;;;;;13.40;99.90;;;;;;5045394;28;20227;-71
2022/11/11 11:10:50;;;;;;;;;;;13.50;99.90;;;;;;5045570;28;19980;-70
2022/11/11 11:13:18;;;;;;;;;;;13.70;99.90;;;;;;5045122;28;20179;-70
2022/11/11 11:15:49;;;;;;;;;;;13.90;99.90;;;;;;5053918;28;19928;-70
2022/11/11 11:18:16;;;;;;;;;;;14.10;99.90;;;;;;5064650;28;20156;-70
2022/11/11 11:20:55;;;;;;;;;;;14.30;99.90;;;;;;5047435;28;19984;-71
2022/11/11 11:23:34;;;;;;;;;;;14.50;99.90;;;;;;5045292;28;20016;-70
2022/11/11 11:26:21;;;;;;;;;;;14.80;99.90;;;;;;5044688;28;19993;-76
2022/11/11 11:28:58;;;;;;;;;;;15.10;99.90;;;;;;5046076;28;19988;-71
2022/11/11 11:31:35;;;;;;;;;;;15.20;99.90;;;;;;5056581;28;19959;-71
2022/11/11 11:34:02;;;;;;;;;;;15.30;99.90;;;;;;5065010;28;19921;-71
2022/11/11 11:36:28;;;;;;;;;;;15.30;99.90;;;;;;5064753;28;19980;-71
2022/11/11 11:38:57;;;;;;;;;;;15.20;99.90;;;;;;5064332;28;20978;-71
2022/11/11 11:41:36;;;;;;;;;;;15.00;99.90;;;;;;5064580;28;19920;-71
2022/11/11 11:44:21;;;;;;;;;;;14.90;99.90;;;;;;5053387;28;19920;-71
2022/11/11 11:46:49;;;;;;;;;;;14.80;99.90;;;;;;5056238;28;19983;-71
2022/11/11 11:49:25;;;;;;;;;;;14.80;99.90;;;;;;5064809;28;19990;-71
2022/11/11 11:51:56;;;;;;;;;;;14.90;99.90;;;;;;5064661;28;20009;-70
2022/11/11 11:54:30;;;;;;;;;;;15.00;99.90;;;;;;5064333;28;19984;-70
2022/11/11 11:56:58;;;;;;;;;;;15.20;99.90;;;;;;5064164;28;19980;-70
2022/11/11 11:59:28;;;;;;;;;;;15.40;99.90;;;;;;5058344;28;19921;-71
2022/11/11 12:02:00;;;;;;;;;;;15.60;99.90;;;;;;5056231;28;19952;-71
2022/11/11 12:04:54;;;;;;;;;;;15.70;99.90;;;;;;5064138;28;19952;-70
2022/11/11 12:07:26;;;;;;;;;;;15.80;99.90;;;;;;5064625;28;19987;-70
2022/11/11 12:09:56;;;;;;;;;;;15.90;99.90;;;;;;5063357;28;19952;-71
2022/11/11 12:12:29;;;;;;;;;;;16.10;99.90;;;;;;5043991;28;19960;-70
2022/11/11 12:15:01;;;;;;;;;;;16.20;99.90;;;;;;5051679;28;19948;-71
2022/11/11 12:17:44;;;;;;;;;;;16.40;99.90;;;;;;5058096;28;20107;-72
2022/11/11 12:20:14;;;;;;;;;;;16.50;99.90;;;;;;5064263;28;19932;-71
2022/11/11 12:22:49;;;;;;;;;;;16.60;99.90;;;;;;5063645;28;19988;-71
2022/11/11 12:25:18;;;;;;;;;;;16.60;99.90;;;;;;5064123;28;19955;-71
2022/11/11 12:27:52;;;;;;;;;;;16.60;99.90;;;;;;5063752;28;19920;-71
2022/11/11 12:30:19;;;;;;;;;;;16.60;99.90;;;;;;5051929;28;20308;-71
2022/11/11 12:32:58;;;;;;;;;;;16.50;99.90;;;;;;5061476;28;20115;-71
2022/11/11 12:35:42;;;;;;;;;;;16.50;99.90;;;;;;5063417;28;19987;-70
2022/11/11 12:38:18;;;;;;;;;;;16.60;99.90;;;;;;5063491;28;20002;-71
2022/11/11 12:40:53;;;;;;;;;;;16.70;99.90;;;;;;5063964;28;19952;-70
2022/11/11 12:43:21;;;;;;;;;;;16.80;99.90;;;;;;5059825;28;19961;-70
2022/11/11 12:46:04;;;;;;;;;;;16.90;99.90;;;;;;5053082;28;19921;-70
2022/11/11 12:48:45;;;;;;;;;;;17.00;99.90;;;;;;5063515;28;19988;-70
2022/11/11 12:51:16;;;;;;;;;;;17.10;99.90;;;;;;5063742;28;20108;-70
2022/11/11 12:53:47;;;;;;;;;;;17.10;99.90;;;;;;5063895;28;20129;-71
2022/11/11 12:56:20;;;;;;;;;;;17.10;99.90;;;;;;5063629;28;19988;-71
2022/11/11 12:58:50;;;;;;;;;;;17.00;99.90;;;;;;5057912;28;19920;-71
2022/11/11 13:01:20;;;;;;;;;;;16.80;99.90;;;;;;5055231;28;19921;-71
2022/11/11 13:04:04;;;;;;;;;;;16.60;99.90;;;;;;5048805;28;20231;-71
2022/11/11 13:06:42;;;;;;;;;;;16.40;99.90;;;;;;5043447;28;19992;-71
2022/11/11 13:09:26;;;;;;;;;;;16.20;99.90;;;;;;5043733;28;19921;-71
2022/11/11 13:11:58;;;;;;;;;;;16.00;99.90;;;;;;5043627;28;20047;-71
2022/11/11 13:14:35;;;;;;;;;;;15.90;99.90;;;;;;5053288;22;19999;-69
2022/11/11 13:17:01;;;;;;;;;;;15.70;99.90;;;;;;5034992;28;19993;-69
2022/11/11 13:19:33;;;;;;;;;;;15.60;99.90;;;;;;5043290;28;19961;-69
2022/11/11 13:22:02;;;;;;;;;;;15.50;99.90;;;;;;5042693;28;19957;-68
2022/11/11 13:24:31;;;;;;;;;;;15.40;99.90;;;;;;5043320;28;19961;-68
2022/11/11 13:27:01;;;;;;;;;;;15.30;99.90;;;;;;5043161;28;19921;-68
2022/11/11 13:29:43;;;;;;;;;;;15.20;99.90;;;;;;5038197;28;19952;-68
2022/11/11 13:32:11;;;;;;;;;;;15.20;99.90;;;;;;5028582;28;19953;-69
2022/11/11 13:34:40;;;;;;;;;;;15.10;99.90;;;;;;5042853;28;19957;-69
2022/11/11 13:37:08;;;;;;;;;;;15.20;99.90;;;;;;5043054;28;19984;-68
2022/11/11 13:39:38;;;;;;;;;;;15.20;99.90;;;;;;5042734;28;19922;-69
2022/11/11 13:42:06;;;;;;;;;;;15.20;99.90;;;;;;5042910;28;19984;-69
2022/11/11 13:44:34;;;;;;;;;;;15.10;99.90;;;;;;5037584;28;19980;-69
2022/11/11 13:47:03;;;;;;;;;;;15.00;99.90;;;;;;5034666;28;19952;-69
2022/11/11 13:49:32;;;;;;;;;;;14.90;99.90;;;;;;5042768;28;19921;-68
2022/11/11 13:52:01;;;;;;;;;;;14.80;99.90;;;;;;5042695;28;19964;-69
2022/11/11 13:54:29;;;;;;;;;;;14.70;99.90;;;;;;5042893;28;19956;-68
2022/11/11 13:57:01;;;;;;;;;;;14.60;99.90;;;;;;5046514;28;20177;-69
2022/11/11 13:59:29;;;;;;;;;;;14.50;99.90;;;;;;5041597;28;19997;-68
2022/11/11 14:02:29;;;;;;;;;;;14.50;99.90;;;;;;5038088;28;19980;-68
2022/11/11 14:05:14;;;;;;;;;;;14.40;99.90;;;;;;4965670;29;20321;-68
2022/11/11 14:07:53;;;;;;;;;;;14.30;99.90;;;;;;4942986;29;19986;-68
2022/11/11 14:10:38;;;;;;;;;;;14.20;99.90;;;;;;4997274;28;19976;-67
2022/11/11 14:13:20;;;;;;;;;;;14.20;99.90;;;;;;5026160;28;19963;-67
2022/11/11 14:15:48;;;;;;;;;;;14.10;99.90;;;;;;5032595;28;19988;-68
2022/11/11 14:18:33;;;;;;;;;;;14.00;99.90;;;;;;5027245;28;20204;-68
2022/11/11 14:21:01;;;;;;;;;;;13.90;99.90;;;;;;5025358;28;19963;-67
2022/11/11 14:23:33;;;;;;;;;;;13.80;99.90;;;;;;5026138;28;19984;-67
2022/11/11 14:26:16;;;;;;;;;;;13.70;99.90;;;;;;5025931;28;19953;-67
2022/11/11 14:28:49;;;;;;;;;;;13.70;99.90;;;;;;5026184;28;19989;-67
2022/11/11 14:31:36;;;;;;;;;;;13.60;99.90;;;;;;5037380;28;19992;-68
2022/11/11 14:34:07;;;;;;;;;;;13.50;99.90;;;;;;5003978;28;20004;-68
2022/11/11 14:36:39;;;;;;;;;;;13.40;99.90;;;;;;5009722;28;19979;-68
2022/11/11 14:39:13;;;;;;;;;;;13.40;99.90;;;;;;5025665;28;20380;-67
2022/11/11 14:41:48;;;;;;;;;;;13.30;99.90;;;;;;5024448;28;19996;-68
2022/11/11 14:44:33;;;;;;;;;;;13.30;99.90;;;;;;5013457;28;19929;-67
2022/11/11 14:47:15;;;;;;;;;;;13.20;99.90;;;;;;5036323;28;19988;-68
2022/11/11 14:49:45;;;;;;;;;;;13.10;99.90;;;;;;5007803;28;19953;-68
2022/11/11 14:52:18;;;;;;;;;;;13.00;99.90;;;;;;5022878;28;19937;-67
2022/11/11 14:54:54;;;;;;;;;;;13.00;99.90;;;;;;5025144;28;19997;-68
2022/11/11 14:57:22;;;;;;;;;;;12.90;99.90;;;;;;5019687;28;20157;-68
2022/11/11 14:59:50;;;;;;;;;;;12.90;99.90;;;;;;5024880;28;19985;-67
2022/11/11 15:02:25;;;;;;;;;;;12.80;99.90;;;;;;5031507;28;19922;-67
2022/11/11 15:04:52;;;;;;;;;;;12.70;99.90;;;;;;5025159;28;19956;-68
2022/11/11 15:07:22;;;;;;;;;;;12.70;99.90;;;;;;5024939;28;20161;-68
2022/11/11 15:10:10;;;;;;;;;;;12.60;99.90;;;;;;5025201;28;19921;-67
2022/11/11 15:12:43;;;;;;;;;;;12.50;99.90;;;;;;4999964;28;19992;-68
2022/11/11 15:15:12;;;;;;;;;;;12.50;99.90;;;;;;5029335;28;20243;-68
2022/11/11 15:17:43;;;;;;;;;;;12.40;99.90;;;;;;5025385;28;19971;-67
2022/11/11 15:20:24;;;;;;;;;;;12.30;99.90;;;;;;5025140;28;19964;-67
2022/11/11 15:22:55;;;;;;;;;;;12.20;99.90;;;;;;5015202;28;19980;-71
2022/11/11 15:25:28;;;;;;;;;;;12.20;99.90;;;;;;5023871;28;19993;-67
2022/11/11 15:28:00;;;;;;;;;;;12.10;99.90;;;;;;5011079;28;19953;-67
2022/11/11 15:30:38;;;;;;;;;;;12.00;99.90;;;;;;5031946;28;19965;-67
2022/11/11 15:33:10;;;;;;;;;;;11.90;99.90;;;;;;5014608;28;20216;-67
2022/11/11 15:35:40;;;;;;;;;;;11.80;99.90;;;;;;5018770;28;20285;-68
2022/11/11 15:38:11;;;;;;;;;;;11.80;99.90;;;;;;5025024;28;19944;-67
2022/11/11 15:40:47;;;;;;;;;;;11.60;99.90;;;;;;5024453;28;19963;-67
2022/11/11 15:43:17;;;;;;;;;;;11.60;99.90;;;;;;5005769;28;19998;-68
2022/11/11 15:45:44;;;;;;;;;;;11.50;99.90;;;;;;5032051;28;20049;-68
2022/11/11 15:48:19;;;;;;;;;;;11.40;99.90;;;;;;5014301;28;19981;-68
2022/11/11 15:50:46;;;;;;;;;;;11.40;99.90;;;;;;5004887;28;19926;-67
2022/11/11 15:53:13;;;;;;;;;;;11.30;99.90;;;;;;5004730;28;19985;-67
2022/11/11 15:55:40;;;;;;;;;;;11.20;99.90;;;;;;5009589;28;19956;-67
2022/11/11 15:58:10;;;;;;;;;;;11.10;99.90;;;;;;5023917;28;19928;-68